Time;durP1;ratioP1;P1;durP2;ratioP2;P2;SDS_P1;SDS_P2;PMS_P1;PMS_P2;Temp;Humidity;BMP_temperature;BMP_pressure;BME280_temperature;BME280_humidity;BME280_pressure;Samples;Min_cycle;Max_cycle;Signal;HPM_P1;HPM_P2
2021/07/26 00:01:01;;;;;;;1.63;1.33;;;25.90;58.50;;;;;;5085080;28;20332;-72
2021/07/26 00:03:34;;;;;;;1.60;1.50;;;25.90;58.50;;;;;;5098845;28;20828;-72
2021/07/26 00:06:05;;;;;;;1.60;1.50;;;25.90;58.40;;;;;;5106327;28;20670;-72
2021/07/26 00:08:37;;;;;;;4.20;1.60;;;25.90;58.50;;;;;;5102548;28;20250;-72
2021/07/26 00:11:12;;;;;;;2.07;1.80;;;25.90;58.50;;;;;;5099704;28;20196;-72
2021/07/26 00:13:41;;;;;;;1.50;1.30;;;25.80;58.40;;;;;;5099800;28;20188;-72
2021/07/26 00:16:23;;;;;;;1.47;1.37;;;25.80;58.40;;;;;;5106497;28;20232;-72
2021/07/26 00:18:53;;;;;;;1.67;1.57;;;25.80;58.40;;;;;;5106115;28;20197;-72
2021/07/26 00:21:21;;;;;;;2.00;1.43;;;25.80;58.40;;;;;;5105293;28;20300;-72
2021/07/26 00:23:49;;;;;;;1.57;1.47;;;25.80;58.40;;;;;;5107002;28;20677;-72
2021/07/26 00:26:20;;;;;;;1.60;1.50;;;25.80;58.40;;;;;;5106317;28;20193;-72
2021/07/26 00:28:53;;;;;;;1.70;1.60;;;25.80;58.40;;;;;;5109513;28;20197;-72
2021/07/26 00:31:22;;;;;;;1.43;1.23;;;25.80;58.50;;;;;;5102796;28;20555;-72
2021/07/26 00:34:20;;;;;;;1.47;1.37;;;25.80;58.50;;;;;;5100386;28;20713;-73
2021/07/26 00:36:58;;;;;;;1.40;1.30;;;25.80;58.40;;;;;;5097965;28;20201;-73
2021/07/26 00:39:34;;;;;;;1.30;1.20;;;25.80;58.50;;;;;;5101350;28;20265;-73
2021/07/26 00:42:03;;;;;;;1.60;1.50;;;25.80;58.50;;;;;;5104203;28;20204;-73
2021/07/26 00:44:33;;;;;;;1.50;1.40;;;25.80;58.50;;;;;;5075361;28;20201;-72
2021/07/26 00:47:04;;;;;;;1.60;1.50;;;25.80;58.50;;;;;;5109946;28;20184;-72
2021/07/26 00:49:34;;;;;;;2.30;1.50;;;25.80;59.20;;;;;;5108426;28;20189;-73
2021/07/26 00:52:05;;;;;;;3.37;1.50;;;25.70;58.50;;;;;;5099382;28;20250;-73
2021/07/26 00:54:43;;;;;;;1.73;1.60;;;25.70;58.50;;;;;;5102659;28;20243;-73
2021/07/26 00:57:13;;;;;;;1.70;1.60;;;25.80;58.60;;;;;;5107792;28;20192;-73
2021/07/26 00:59:41;;;;;;;2.23;1.60;;;25.70;58.60;;;;;;5105418;28;20240;-73
2021/07/26 01:02:12;;;;;;;1.80;1.60;;;25.70;58.60;;;;;;5082844;28;20626;-72
2021/07/26 01:04:42;;;;;;;3.20;1.50;;;25.70;58.60;;;;;;5102437;28;20193;-72
2021/07/26 01:07:19;;;;;;;1.83;1.73;;;25.70;58.60;;;;;;5098310;28;20214;-72
2021/07/26 01:09:49;;;;;;;2.33;1.60;;;25.70;59.20;;;;;;5100759;28;20211;-73
2021/07/26 01:12:17;;;;;;;1.97;1.77;;;25.80;58.70;;;;;;5107370;28;20542;-73
2021/07/26 01:14:46;;;;;;;3.33;1.57;;;25.70;58.70;;;;;;5104383;28;20219;-73
2021/07/26 01:17:24;;;;;;;2.07;1.60;;;25.80;58.80;;;;;;5106836;28;20196;-73
2021/07/26 01:19:52;;;;;;;1.90;1.80;;;25.70;58.60;;;;;;5087772;28;20226;-73
2021/07/26 01:22:23;;;;;;;1.70;1.40;;;25.70;58.70;;;;;;5101533;28;20197;-73
2021/07/26 01:24:54;;;;;;;2.13;1.63;;;25.70;58.70;;;;;;5091055;28;20203;-73
2021/07/26 01:27:25;;;;;;;2.37;1.90;;;25.70;58.70;;;;;;5098912;28;20609;-73
2021/07/26 01:29:57;;;;;;;2.23;2.03;;;25.70;58.70;;;;;;5094194;28;20415;-73
2021/07/26 01:32:39;;;;;;;2.33;1.47;;;25.70;58.70;;;;;;5097028;28;20284;-73
2021/07/26 01:35:08;;;;;;;1.90;1.77;;;25.70;58.80;;;;;;5105655;28;20227;-73
2021/07/26 01:37:39;;;;;;;1.87;1.63;;;25.70;58.70;;;;;;5100471;28;20212;-73
2021/07/26 01:40:10;;;;;;;2.07;1.87;;;25.70;58.70;;;;;;5108948;28;20219;-73
2021/07/26 01:42:50;;;;;;;4.03;2.00;;;25.70;58.80;;;;;;5097008;28;20204;-73
2021/07/26 01:45:18;;;;;;;1.77;1.60;;;25.70;58.70;;;;;;5101159;28;20203;-73
2021/07/26 01:47:55;;;;;;;1.60;1.50;;;25.70;58.70;;;;;;5104569;28;20201;-73
2021/07/26 01:50:49;;;;;;;2.40;1.60;;;25.70;58.80;;;;;;5088002;28;20200;-73
2021/07/26 01:53:19;;;;;;;2.23;2.03;;;25.70;58.70;;;;;;5105839;28;20661;-73
2021/07/26 01:55:49;;;;;;;1.80;1.50;;;25.70;58.80;;;;;;5097239;28;20674;-73
2021/07/26 01:58:20;;;;;;;1.80;1.70;;;25.70;58.80;;;;;;5104779;28;20198;-73
2021/07/26 02:00:51;;;;;;;4.20;1.83;;;25.70;58.80;;;;;;5102950;28;20235;-73
2021/07/26 02:03:21;;;;;;;3.00;1.60;;;25.70;58.80;;;;;;5105824;28;20253;-73
2021/07/26 02:05:53;;;;;;;2.47;1.73;;;25.70;58.80;;;;;;5101588;28;20212;-73
2021/07/26 02:08:25;;;;;;;2.10;1.83;;;25.70;58.80;;;;;;5098877;28;20188;-73
2021/07/26 02:10:54;;;;;;;1.90;1.80;;;25.70;58.80;;;;;;5099678;28;20288;-73
2021/07/26 02:13:25;;;;;;;2.10;1.70;;;25.70;59.40;;;;;;5107054;28;20209;-73
2021/07/26 02:15:53;;;;;;;2.10;1.80;;;25.70;58.80;;;;;;5095083;28;20775;-73
2021/07/26 02:18:25;;;;;;;1.80;1.70;;;25.60;58.70;;;;;;5108184;28;20201;-73
2021/07/26 02:20:56;;;;;;;2.13;1.77;;;25.60;58.70;;;;;;5098541;28;20285;-73
2021/07/26 02:23:27;;;;;;;1.83;1.73;;;25.60;58.70;;;;;;5105538;28;20219;-73
2021/07/26 02:25:56;;;;;;;2.00;1.90;;;25.60;58.70;;;;;;5101056;28;20246;-73
2021/07/26 02:28:28;;;;;;;2.93;1.50;;;25.60;58.70;;;;;;5101554;28;20236;-73
2021/07/26 02:31:00;;;;;;;3.67;1.80;;;25.60;58.80;;;;;;5095522;28;20255;-73
2021/07/26 02:33:28;;;;;;;1.60;1.50;;;25.60;58.70;;;;;;5097594;28;20199;-73
2021/07/26 02:35:58;;;;;;;1.70;1.60;;;25.60;58.80;;;;;;5097738;28;20243;-73
2021/07/26 02:38:29;;;;;;;1.80;1.70;;;25.60;58.80;;;;;;5099505;28;20201;-73
2021/07/26 02:41:09;;;;;;;2.10;1.83;;;25.60;58.80;;;;;;5079322;28;20208;-73
2021/07/26 02:43:45;;;;;;;2.40;1.70;;;25.60;58.80;;;;;;5103512;28;20188;-73
2021/07/26 02:46:15;;;;;;;2.70;1.70;;;25.60;58.80;;;;;;5107062;28;20562;-73
2021/07/26 02:48:44;;;;;;;1.80;1.70;;;25.60;58.80;;;;;;5101839;28;20240;-72
2021/07/26 02:51:16;;;;;;;1.93;1.60;;;25.60;58.80;;;;;;5107225;28;20200;-72
2021/07/26 02:53:46;;;;;;;2.03;1.80;;;25.60;58.80;;;;;;5102605;28;20219;-72
2021/07/26 02:56:15;;;;;;;1.90;1.80;;;25.60;58.80;;;;;;5103843;28;20240;-72
2021/07/26 02:58:43;;;;;;;2.20;1.90;;;25.60;58.80;;;;;;5100927;28;20219;-72
2021/07/26 03:01:17;;;;;;;1.80;1.70;;;25.50;58.70;;;;;;5094452;28;20370;-72
2021/07/26 03:03:47;;;;;;;2.10;2.00;;;25.60;58.80;;;;;;5104593;28;20204;-72
2021/07/26 03:06:20;;;;;;;2.10;2.00;;;25.60;58.80;;;;;;5099068;28;20201;-72
2021/07/26 03:08:55;;;;;;;1.70;1.60;;;25.60;58.80;;;;;;5104304;28;20192;-73
2021/07/26 03:11:26;;;;;;;2.10;1.90;;;25.60;58.80;;;;;;5099538;28;20201;-73
2021/07/26 03:13:56;;;;;;;1.77;1.67;;;25.50;58.80;;;;;;5101941;28;20274;-72
2021/07/26 03:16:28;;;;;;;1.90;1.70;;;25.50;58.70;;;;;;5101560;28;20610;-73
2021/07/26 03:18:59;;;;;;;1.73;1.63;;;25.50;58.70;;;;;;5105600;28;20200;-72
2021/07/26 03:21:29;;;;;;;2.87;1.57;;;25.60;58.70;;;;;;5091311;28;20309;-72
2021/07/26 03:23:59;;;;;;;2.10;1.70;;;25.50;58.70;;;;;;5106317;28;20237;-72
2021/07/26 03:26:30;;;;;;;2.97;1.40;;;25.50;58.70;;;;;;5098902;28;20200;-72
2021/07/26 03:28:58;;;;;;;2.00;1.60;;;25.60;58.70;;;;;;5104584;28;20296;-71
2021/07/26 03:31:32;;;;;;;2.10;1.60;;;25.50;58.70;;;;;;5098568;28;20228;-73
2021/07/26 03:34:01;;;;;;;1.93;1.80;;;25.50;58.70;;;;;;5102239;28;20212;-71
2021/07/26 03:36:45;;;;;;;2.00;1.80;;;25.50;58.70;;;;;;5095952;28;20204;-71
2021/07/26 03:39:14;;;;;;;2.03;1.70;;;25.50;58.70;;;;;;5100343;28;20217;-72
2021/07/26 03:41:44;;;;;;;2.00;1.80;;;25.50;58.70;;;;;;5079692;28;20203;-72
2021/07/26 03:44:14;;;;;;;1.90;1.60;;;25.50;58.70;;;;;;5106301;28;20204;-72
2021/07/26 03:46:45;;;;;;;25.77;7.63;;;25.50;58.80;;;;;;5101228;28;20201;-73
2021/07/26 03:49:16;;;;;;;39.43;12.23;;;25.50;59.10;;;;;;5100083;28;20654;-72
2021/07/26 03:51:49;;;;;;;51.33;14.30;;;25.50;59.40;;;;;;5106166;28;20622;-72
2021/07/26 03:54:23;;;;;;;50.83;14.53;;;25.50;59.40;;;;;;5101009;28;20192;-71
2021/07/26 03:56:58;;;;;;;45.77;14.07;;;25.50;59.40;;;;;;5110253;28;20378;-73
2021/07/26 03:59:28;;;;;;;47.20;15.20;;;25.50;59.30;;;;;;5101683;28;20528;-73
2021/07/26 04:02:02;;;;;;;46.17;14.97;;;25.50;59.30;;;;;;5105941;28;20224;-71
2021/07/26 04:04:32;;;;;;;44.53;14.10;;;25.50;59.30;;;;;;5101175;28;20200;-72
2021/07/26 04:07:08;;;;;;;47.33;14.53;;;25.50;59.30;;;;;;5105072;28;20204;-72
2021/07/26 04:09:47;;;;;;;39.47;13.70;;;25.50;59.30;;;;;;5095701;28;20204;-68
2021/07/26 04:12:26;;;;;;;53.80;16.10;;;25.50;59.70;;;;;;5104644;28;20212;-72
2021/07/26 04:14:57;;;;;;;101.60;28.33;;;25.50;60.00;;;;;;5105581;28;20224;-72
2021/07/26 04:17:27;;;;;;;87.37;27.53;;;25.50;60.20;;;;;;5101437;28;20512;-72
2021/07/26 04:19:55;;;;;;;92.77;26.20;;;25.50;60.20;;;;;;5111574;28;20216;-73
2021/07/26 04:22:27;;;;;;;77.63;22.30;;;25.50;60.30;;;;;;5103490;28;20231;-71
2021/07/26 04:24:57;;;;;;;75.97;22.87;;;25.50;60.60;;;;;;5108403;28;20400;-71
2021/07/26 04:27:36;;;;;;;67.93;21.67;;;25.50;60.50;;;;;;5097575;28;20352;-73
2021/07/26 04:30:06;;;;;;;50.53;18.23;;;25.50;60.50;;;;;;5096423;28;20228;-73
2021/07/26 04:32:47;;;;;;;54.47;17.73;;;25.50;61.20;;;;;;5098669;28;20250;-72
2021/07/26 04:35:21;;;;;;;58.70;17.53;;;25.60;61.20;;;;;;5098358;28;20204;-70
2021/07/26 04:37:53;;;;;;;44.67;15.97;;;25.50;61.50;;;;;;5105872;28;20206;-70
2021/07/26 04:40:27;;;;;;;43.60;14.53;;;25.50;62.10;;;;;;5103690;28;20291;-72
2021/07/26 04:42:57;;;;;;;37.73;13.63;;;25.50;62.20;;;;;;5094588;28;20203;-73
2021/07/26 04:45:29;;;;;;;36.33;12.93;;;25.50;62.40;;;;;;5103631;28;20204;-73
2021/07/26 04:47:59;;;;;;;37.60;12.90;;;25.50;62.40;;;;;;5108228;28;20199;-72
2021/07/26 04:50:30;;;;;;;36.20;12.00;;;25.50;62.30;;;;;;5099764;28;20201;-70
2021/07/26 04:53:01;;;;;;;34.73;11.20;;;25.50;61.90;;;;;;5110257;28;20235;-70
2021/07/26 04:55:32;;;;;;;37.23;11.87;;;25.50;61.80;;;;;;5107107;28;20193;-71
2021/07/26 04:58:02;;;;;;;27.00;10.73;;;25.50;61.70;;;;;;5108704;28;20705;-71
2021/07/26 05:00:33;;;;;;;22.30;9.43;;;25.50;61.20;;;;;;5103400;28;20227;-71
2021/07/26 05:03:09;;;;;;;24.10;9.90;;;25.50;61.10;;;;;;5108258;28;20203;-71
2021/07/26 05:05:41;;;;;;;27.93;10.40;;;25.50;60.90;;;;;;5085216;28;20216;-71
2021/07/26 05:08:11;;;;;;;27.13;9.87;;;25.50;60.60;;;;;;5091885;28;20255;-70
2021/07/26 05:10:46;;;;;;;27.37;8.97;;;25.50;60.60;;;;;;5103232;28;20206;-72
2021/07/26 05:13:20;;;;;;;19.90;7.83;;;25.50;60.40;;;;;;5089779;28;20240;-72
2021/07/26 05:15:54;;;;;;;19.40;8.23;;;25.50;60.20;;;;;;5110043;28;20204;-72
2021/07/26 05:18:24;;;;;;;19.57;8.43;;;25.50;60.20;;;;;;5103367;28;20614;-72
2021/07/26 05:20:55;;;;;;;21.93;8.20;;;25.50;60.10;;;;;;5092670;28;20750;-70
2021/07/26 05:23:30;;;;;;;17.60;7.40;;;25.50;59.90;;;;;;5097277;28;20191;-70
2021/07/26 05:26:00;;;;;;;16.33;7.80;;;25.50;59.90;;;;;;5102081;28;20246;-72
2021/07/26 05:28:32;;;;;;;15.97;7.80;;;25.50;59.80;;;;;;5103055;28;20600;-72
2021/07/26 05:31:02;;;;;;;15.53;7.30;;;25.50;59.70;;;;;;5106118;28;20235;-71
2021/07/26 05:33:30;;;;;;;13.93;6.77;;;25.50;59.60;;;;;;5108185;28;20200;-70
2021/07/26 05:36:01;;;;;;;12.37;6.50;;;25.50;59.50;;;;;;5108247;28;20678;-71
2021/07/26 05:38:34;;;;;;;12.83;6.33;;;25.50;59.50;;;;;;5103361;28;20205;-70
2021/07/26 05:41:08;;;;;;;12.30;6.00;;;25.50;59.40;;;;;;5105993;28;20220;-70
2021/07/26 05:43:41;;;;;;;13.53;5.93;;;25.50;59.30;;;;;;5105354;28;20678;-70
2021/07/26 05:46:13;;;;;;;11.77;5.80;;;25.50;59.30;;;;;;5107762;28;20204;-70
2021/07/26 05:48:48;;;;;;;15.20;6.47;;;25.50;59.20;;;;;;5106788;28;20188;-70
2021/07/26 05:51:16;;;;;;;11.87;5.80;;;25.50;59.10;;;;;;5106202;28;20207;-71
2021/07/26 05:53:47;;;;;;;11.47;4.90;;;25.50;59.10;;;;;;5103507;28;20249;-71
2021/07/26 05:56:19;;;;;;;10.17;5.07;;;25.40;59.00;;;;;;5102182;28;20262;-71
2021/07/26 05:58:50;;;;;;;9.47;5.00;;;25.50;58.90;;;;;;5110075;28;20261;-72
2021/07/26 06:01:35;;;;;;;10.40;5.17;;;25.40;58.80;;;;;;5096907;28;20235;-71
2021/07/26 06:04:07;;;;;;;10.23;5.17;;;25.50;58.90;;;;;;5107830;28;20249;-70
2021/07/26 06:06:35;;;;;;;7.37;4.53;;;25.50;58.80;;;;;;5103454;28;20188;-70
2021/07/26 06:09:04;;;;;;;8.77;4.30;;;25.50;58.80;;;;;;5108093;28;20200;-70
2021/07/26 06:11:39;;;;;;;6.67;4.13;;;25.40;58.60;;;;;;5101804;28;20202;-71
2021/07/26 06:14:12;;;;;;;7.17;4.30;;;25.40;58.60;;;;;;5098339;28;20207;-71
2021/07/26 06:16:46;;;;;;;8.77;4.47;;;25.40;58.50;;;;;;5107286;28;20196;-72
2021/07/26 06:19:15;;;;;;;5.93;4.23;;;25.40;58.50;;;;;;5099533;28;20197;-72
2021/07/26 06:21:55;;;;;;;8.23;4.43;;;25.50;58.50;;;;;;5100555;28;20216;-72
2021/07/26 06:24:33;;;;;;;3.93;3.37;;;25.40;58.30;;;;;;5104454;28;20207;-72
2021/07/26 06:27:16;;;;;;;4.87;4.03;;;25.50;58.40;;;;;;5110489;28;20196;-71
2021/07/26 06:29:48;;;;;;;6.67;4.17;;;25.40;58.40;;;;;;5098919;28;20221;-70
2021/07/26 06:32:18;;;;;;;7.20;3.27;;;25.40;58.30;;;;;;5101888;28;20645;-73
2021/07/26 06:34:51;;;;;;;5.23;3.20;;;25.40;58.30;;;;;;5100394;28;20181;-72
2021/07/26 06:37:21;;;;;;;3.97;3.50;;;25.40;58.30;;;;;;5108225;28;21064;-72
2021/07/26 06:39:52;;;;;;;5.33;3.37;;;25.40;58.30;;;;;;5101107;28;20253;-73
2021/07/26 06:42:22;;;;;;;4.70;3.87;;;25.40;58.20;;;;;;5101468;28;20216;-71
2021/07/26 06:44:56;;;;;;;6.57;3.63;;;25.50;58.20;;;;;;5105056;28;20191;-70
2021/07/26 06:47:26;;;;;;;6.77;3.57;;;25.40;58.20;;;;;;5104411;28;20342;-72
2021/07/26 06:49:56;;;;;;;3.77;3.10;;;25.40;58.10;;;;;;5102581;28;20185;-72
2021/07/26 06:52:28;;;;;;;3.80;3.40;;;25.50;58.20;;;;;;5100293;28;20277;-70
2021/07/26 06:55:00;;;;;;;5.27;2.67;;;25.40;58.10;;;;;;5104274;28;20220;-70
2021/07/26 06:57:43;;;;;;;5.03;3.37;;;25.40;58.10;;;;;;5105278;28;20207;-69
2021/07/26 07:00:18;;;;;;;3.83;3.07;;;25.50;58.20;;;;;;5105479;28;20202;-69
2021/07/26 07:02:50;;;;;;;3.27;2.77;;;25.40;58.10;;;;;;5094297;28;20209;-69
2021/07/26 07:05:20;;;;;;;3.07;2.77;;;25.50;58.20;;;;;;5101775;28;20208;-70
2021/07/26 07:07:50;;;;;;;3.37;2.53;;;25.50;58.10;;;;;;5101019;28;20301;-71
2021/07/26 07:10:21;;;;;;;3.53;3.10;;;25.40;58.10;;;;;;5080203;28;20193;-71
2021/07/26 07:12:54;;;;;;;3.07;2.70;;;25.40;58.10;;;;;;5099177;28;20197;-72
2021/07/26 07:15:24;;;;;;;3.93;2.83;;;25.40;58.00;;;;;;5098736;28;20212;-71
2021/07/26 07:17:55;;;;;;;3.63;2.73;;;25.50;58.00;;;;;;5105499;28;20200;-71
2021/07/26 07:20:26;;;;;;;2.67;2.30;;;25.50;58.10;;;;;;5109096;28;20264;-70
2021/07/26 07:22:56;;;;;;;3.27;2.80;;;25.50;58.00;;;;;;5111438;28;20953;-70
2021/07/26 07:25:29;;;;;;;3.00;2.53;;;25.50;58.00;;;;;;5103847;28;20207;-70
2021/07/26 07:28:00;;;;;;;3.83;2.40;;;25.50;58.00;;;;;;5100113;28;20282;-71
2021/07/26 07:30:28;;;;;;;2.93;2.70;;;25.50;58.00;;;;;;5103234;28;20233;-69
2021/07/26 07:33:01;;;;;;;3.33;2.40;;;25.50;58.00;;;;;;5113417;28;20215;-70
2021/07/26 07:35:35;;;;;;;2.40;2.20;;;25.50;58.00;;;;;;5105716;28;20196;-70
2021/07/26 07:38:22;;;;;;;2.47;2.20;;;25.50;58.00;;;;;;5102822;28;20286;-70
2021/07/26 07:40:52;;;;;;;2.80;2.60;;;25.50;58.00;;;;;;5106880;28;20232;-71
2021/07/26 07:43:23;;;;;;;2.40;2.20;;;25.50;58.00;;;;;;5106451;28;20216;-72
2021/07/26 07:45:56;;;;;;;2.43;2.23;;;25.50;57.90;;;;;;5100105;28;20212;-71
2021/07/26 07:48:27;;;;;;;2.67;2.27;;;25.50;57.80;;;;;;5105423;28;20276;-71
2021/07/26 07:50:57;;;;;;;3.60;2.20;;;25.40;57.70;;;;;;5109861;28;20193;-71
2021/07/26 07:53:26;;;;;;;2.73;2.47;;;25.50;57.70;;;;;;5108867;28;20200;-70
2021/07/26 07:55:54;;;;;;;2.23;1.90;;;25.40;57.90;;;;;;5107815;28;20613;-71
2021/07/26 07:58:33;;;;;;;2.93;2.67;;;25.50;57.90;;;;;;5108766;27;20745;-72
2021/07/26 08:01:05;;;;;;;2.30;2.10;;;25.50;57.70;;;;;;5110621;28;20196;-72
2021/07/26 08:03:35;;;;;;;2.23;1.90;;;25.50;57.70;;;;;;5104893;28;20196;-73
2021/07/26 08:06:05;;;;;;;2.60;2.40;;;25.40;57.60;;;;;;5090037;28;20283;-71
2021/07/26 08:08:34;;;;;;;2.57;2.17;;;25.50;57.70;;;;;;5103211;27;20664;-70
2021/07/26 08:11:07;;;;;;;2.50;2.30;;;25.50;57.60;;;;;;5112140;28;20186;-70
2021/07/26 08:13:40;;;;;;;2.43;2.20;;;25.40;57.60;;;;;;5108844;28;20180;-70
2021/07/26 08:16:09;;;;;;;2.57;2.37;;;25.40;57.50;;;;;;5108789;28;20204;-70
2021/07/26 08:18:57;;;;;;;2.50;2.10;;;25.50;57.70;;;;;;5107742;28;20520;-71
2021/07/26 08:21:27;;;;;;;2.57;2.37;;;25.50;57.70;;;;;;5092827;28;20196;-71
2021/07/26 08:23:59;;;;;;;2.57;2.37;;;25.40;57.70;;;;;;5108543;28;20194;-71
2021/07/26 08:26:28;;;;;;;2.03;1.83;;;25.50;57.80;;;;;;5109525;27;20189;-72
2021/07/26 08:28:58;;;;;;;2.27;2.07;;;25.50;57.70;;;;;;5114275;27;20226;-72
2021/07/26 08:31:29;;;;;;;2.20;2.00;;;25.50;57.70;;;;;;5104270;28;20265;-72
2021/07/26 08:34:00;;;;;;;2.60;2.37;;;25.50;57.70;;;;;;5110178;28;20606;-72
2021/07/26 08:36:32;;;;;;;1.80;1.70;;;25.50;58.00;;;;;;5109489;28;20645;-73
2021/07/26 08:39:09;;;;;;;2.63;2.00;;;25.50;57.70;;;;;;5102889;28;20203;-73
2021/07/26 08:41:43;;;;;;;2.47;2.17;;;25.50;57.80;;;;;;5098868;28;20195;-72
2021/07/26 08:44:15;;;;;;;2.20;2.00;;;25.50;57.90;;;;;;5109217;28;20203;-72
2021/07/26 08:46:46;;;;;;;2.03;1.80;;;25.50;58.00;;;;;;5101039;28;20200;-72
2021/07/26 08:49:19;;;;;;;2.23;1.80;;;25.50;58.00;;;;;;5106465;28;20196;-72
2021/07/26 08:51:50;;;;;;;2.20;1.97;;;25.50;58.00;;;;;;5093656;28;20283;-73
2021/07/26 08:54:32;;;;;;;2.50;2.30;;;25.50;57.90;;;;;;5099565;28;20227;-74
2021/07/26 08:57:04;;;;;;;2.40;2.20;;;25.50;58.10;;;;;;5104142;28;20204;-72
2021/07/26 08:59:55;;;;;;;2.87;2.13;;;25.50;58.20;;;;;;5091080;28;20201;-73
2021/07/26 09:02:51;;;;;;;2.40;2.20;;;25.50;58.00;;;;;;5095772;28;20208;-72
2021/07/26 09:05:23;;;;;;;2.20;2.00;;;25.60;58.10;;;;;;5097204;28;20623;-73
2021/07/26 09:08:11;;;;;;;2.77;2.20;;;25.60;58.20;;;;;;5104911;28;20355;-72
2021/07/26 09:10:46;;;;;;;1.80;1.70;;;25.60;58.00;;;;;;5107230;28;20646;-71
2021/07/26 09:13:38;;;;;;;2.87;2.17;;;25.60;58.00;;;;;;5104638;28;20211;-71
2021/07/26 09:16:30;;;;;;;2.57;2.20;;;25.60;58.10;;;;;;5090398;28;20196;-72
2021/07/26 09:19:08;;;;;;;2.53;2.33;;;25.60;58.00;;;;;;5102064;28;20213;-71
2021/07/26 09:21:56;;;;;;;2.20;1.90;;;25.60;58.10;;;;;;5110380;28;20213;-72
2021/07/26 09:24:38;;;;;;;2.33;2.13;;;25.60;58.00;;;;;;5098627;28;20210;-72
2021/07/26 09:27:18;;;;;;;2.07;1.87;;;25.60;58.00;;;;;;5110425;28;20200;-71
2021/07/26 09:30:11;;;;;;;2.10;2.00;;;25.60;58.00;;;;;;5099297;28;20236;-71
2021/07/26 09:32:43;;;;;;;2.07;1.90;;;25.60;58.00;;;;;;5097204;28;20768;-71
2021/07/26 09:35:17;;;;;;;1.83;1.73;;;25.60;58.00;;;;;;5108704;28;20212;-70
2021/07/26 09:37:59;;;;;;;2.50;1.80;;;25.60;58.00;;;;;;5102716;28;20304;-71
2021/07/26 09:40:40;;;;;;;2.03;1.93;;;25.70;58.00;;;;;;5100008;28;20289;-71
2021/07/26 09:43:25;;;;;;;2.00;1.90;;;25.70;58.10;;;;;;5106159;28;20204;-72
2021/07/26 09:45:59;;;;;;;1.90;1.80;;;25.70;58.00;;;;;;5106979;28;20207;-71
2021/07/26 09:48:42;;;;;;;2.07;1.87;;;25.70;58.00;;;;;;5100419;28;20200;-70
2021/07/26 09:51:25;;;;;;;2.00;1.90;;;25.70;58.00;;;;;;5100587;28;20467;-71
2021/07/26 09:53:57;;;;;;;1.90;1.80;;;25.70;57.90;;;;;;5093198;28;20200;-70
2021/07/26 09:56:41;;;;;;;2.10;1.90;;;25.70;58.00;;;;;;5103014;28;20204;-73
2021/07/26 09:59:26;;;;;;;2.03;1.83;;;25.70;57.80;;;;;;5107300;28;20645;-72
2021/07/26 10:02:00;;;;;;;2.10;1.90;;;25.70;57.80;;;;;;5105610;28;20540;-71
2021/07/26 10:04:32;;;;;;;1.60;1.50;;;25.70;57.80;;;;;;5106633;28;20257;-71
2021/07/26 10:07:01;;;;;;;1.73;1.60;;;25.70;57.80;;;;;;5096888;28;20201;-71
2021/07/26 10:09:36;;;;;;;2.10;1.90;;;25.70;57.80;;;;;;5097350;28;20203;-71
2021/07/26 10:12:06;;;;;;;2.03;1.67;;;25.70;57.80;;;;;;5102387;28;20210;-72
2021/07/26 10:14:41;;;;;;;2.43;2.07;;;25.70;57.70;;;;;;5097640;28;20208;-73
2021/07/26 10:17:10;;;;;;;1.90;1.67;;;25.70;57.70;;;;;;5101940;28;20180;-72
2021/07/26 10:19:40;;;;;;;2.00;1.77;;;25.70;57.70;;;;;;5102921;28;20539;-71
2021/07/26 10:22:16;;;;;;;1.83;1.73;;;25.70;57.70;;;;;;5091888;28;20213;-71
2021/07/26 10:25:20;;;;;;;1.83;1.73;;;25.70;57.60;;;;;;5100444;28;20289;-72
2021/07/26 10:27:55;;;;;;;2.37;2.17;;;25.70;57.60;;;;;;5104529;28;20219;-73
2021/07/26 10:30:38;;;;;;;2.23;1.87;;;25.80;57.70;;;;;;5099391;28;20232;-73
2021/07/26 10:33:07;;;;;;;1.80;1.70;;;25.80;57.60;;;;;;5104803;28;20691;-73
2021/07/26 10:35:56;;;;;;;1.77;1.67;;;25.70;57.60;;;;;;5088569;28;20249;-73
2021/07/26 10:38:48;;;;;;;2.20;1.50;;;25.80;57.70;;;;;;5099282;28;20193;-72
2021/07/26 10:41:45;;;;;;;1.57;1.47;;;25.80;57.70;;;;;;5091016;28;20227;-73
2021/07/26 10:44:24;;;;;;;1.50;1.40;;;25.80;57.60;;;;;;5091632;28;20241;-73
2021/07/26 10:49:50;;;;;;;1.70;1.60;;;25.80;57.60;;;;;;5101107;28;20211;-72
2021/07/26 10:52:28;;;;;;;2.00;1.90;;;25.80;57.70;;;;;;5100439;28;20204;-72
2021/07/26 10:55:01;;;;;;;1.80;1.70;;;25.80;57.70;;;;;;5106883;28;20226;-72
2021/07/26 10:57:48;;;;;;;2.57;1.80;;;25.80;57.70;;;;;;5102698;28;20236;-70
2021/07/26 11:00:20;;;;;;;1.63;1.53;;;25.80;57.60;;;;;;5106076;28;20632;-72
2021/07/26 11:02:56;;;;;;;1.63;1.40;;;25.80;57.60;;;;;;5099612;28;20934;-73
2021/07/26 11:05:32;;;;;;;1.63;1.53;;;25.80;57.60;;;;;;5096156;28;20193;-71
2021/07/26 11:08:23;;;;;;;1.60;1.50;;;25.80;57.60;;;;;;5098181;28;20196;-71
2021/07/26 11:11:00;;;;;;;1.87;1.77;;;25.90;57.60;;;;;;5100243;28;20197;-73
2021/07/26 11:13:59;;;;;;;2.00;1.90;;;25.80;57.50;;;;;;5105547;28;20261;-73
2021/07/26 11:17:04;;;;;;;1.70;1.60;;;25.90;57.60;;;;;;5097948;28;20240;-72
2021/07/26 11:19:46;;;;;;;2.10;1.70;;;25.90;57.60;;;;;;5101175;28;20224;-73
2021/07/26 11:22:24;;;;;;;1.77;1.67;;;25.90;57.60;;;;;;5103609;28;20278;-72
2021/07/26 11:25:10;;;;;;;1.57;1.47;;;25.90;57.60;;;;;;5103168;28;20196;-71
2021/07/26 11:27:40;;;;;;;1.53;1.43;;;25.90;57.70;;;;;;5106300;28;20196;-74
2021/07/26 11:30:22;;;;;;;1.87;1.77;;;25.90;58.20;;;;;;5097151;28;20200;-71
2021/07/26 11:32:57;;;;;;;1.43;1.33;;;25.90;57.50;;;;;;5107606;28;20192;-72
2021/07/26 11:35:38;;;;;;;1.70;1.60;;;25.90;57.70;;;;;;5101623;28;20208;-74
2021/07/26 11:38:21;;;;;;;2.60;1.63;;;25.90;57.60;;;;;;5107596;28;20200;-73
2021/07/26 11:40:51;;;;;;;1.73;1.63;;;25.90;57.50;;;;;;5107926;28;20253;-73
2021/07/26 11:43:39;;;;;;;1.93;1.83;;;25.90;57.60;;;;;;5105339;28;20221;-73
2021/07/26 11:46:10;;;;;;;1.90;1.80;;;26.00;57.60;;;;;;5088290;28;20208;-72
2021/07/26 11:48:42;;;;;;;1.90;1.80;;;25.90;57.70;;;;;;5096576;28;20250;-70
2021/07/26 11:51:30;;;;;;;1.80;1.70;;;25.90;57.60;;;;;;5105846;28;20188;-71
2021/07/26 11:54:00;;;;;;;1.83;1.73;;;26.00;57.70;;;;;;5097644;28;20215;-70
2021/07/26 11:56:30;;;;;;;1.60;1.50;;;26.00;57.70;;;;;;5107632;28;20435;-73
2021/07/26 11:59:31;;;;;;;2.13;1.97;;;26.00;57.70;;;;;;5100270;28;20254;-74
2021/07/26 12:02:40;;;;;;;1.90;1.80;;;26.00;57.70;;;;;;5104301;28;20331;-73
2021/07/26 12:05:10;;;;;;;1.90;1.80;;;26.00;57.80;;;;;;5022175;28;20202;-72
2021/07/26 12:07:45;;;;;;;1.83;1.70;;;26.00;57.90;;;;;;5021029;28;20211;-72
2021/07/26 12:10:14;;;;;;;1.87;1.77;;;26.00;57.90;;;;;;5029663;28;20210;-72
2021/07/26 12:12:49;;;;;;;1.97;1.77;;;26.00;57.90;;;;;;5045760;28;20336;-72
2021/07/26 12:15:29;;;;;;;2.00;1.80;;;26.10;58.00;;;;;;5099965;28;20580;-70
2021/07/26 12:18:12;;;;;;;2.07;1.97;;;26.10;58.20;;;;;;5103434;28;20214;-70
2021/07/26 12:20:53;;;;;;;1.67;1.57;;;26.10;58.00;;;;;;5092892;28;20211;-71
2021/07/26 12:23:26;;;;;;;2.10;1.80;;;26.10;58.10;;;;;;5103214;28;20569;-71
2021/07/26 12:26:06;;;;;;;2.00;1.83;;;26.10;58.00;;;;;;5107317;28;20238;-71
2021/07/26 12:28:45;;;;;;;1.80;1.70;;;26.10;58.00;;;;;;5100332;28;20613;-72
2021/07/26 12:31:37;;;;;;;1.80;1.70;;;26.10;58.10;;;;;;5104704;28;20239;-71
2021/07/26 12:34:24;;;;;;;1.73;1.63;;;26.10;58.00;;;;;;5095060;28;20228;-72
2021/07/26 12:36:57;;;;;;;1.80;1.67;;;26.20;58.20;;;;;;5100676;28;20207;-72
2021/07/26 12:39:42;;;;;;;2.00;1.90;;;26.10;58.00;;;;;;5107927;28;20196;-72
2021/07/26 12:42:21;;;;;;;1.70;1.60;;;26.20;58.10;;;;;;5105426;28;20207;-72
2021/07/26 12:44:52;;;;;;;1.70;1.60;;;26.10;58.10;;;;;;5101405;28;20192;-71
2021/07/26 12:47:26;;;;;;;2.10;2.00;;;26.20;58.10;;;;;;5106602;28;20230;-71
2021/07/26 12:49:58;;;;;;;1.87;1.77;;;26.20;58.10;;;;;;5099721;28;20200;-72
2021/07/26 12:52:29;;;;;;;1.77;1.67;;;26.20;58.20;;;;;;5100407;28;20192;-72
2021/07/26 12:54:57;;;;;;;2.17;2.07;;;26.20;58.20;;;;;;5102584;28;20222;-72
2021/07/26 12:57:27;;;;;;;1.80;1.70;;;26.20;58.20;;;;;;5111274;28;20203;-72
2021/07/26 13:00:20;;;;;;;2.27;2.13;;;26.20;58.20;;;;;;5102856;28;20297;-72
2021/07/26 13:02:53;;;;;;;2.07;1.90;;;26.30;58.30;;;;;;5108289;28;20241;-72
2021/07/26 13:05:23;;;;;;;1.90;1.80;;;26.30;58.40;;;;;;5092666;28;20231;-72
2021/07/26 13:07:52;;;;;;;1.87;1.63;;;26.30;58.30;;;;;;5101026;28;20200;-72
2021/07/26 13:10:20;;;;;;;1.80;1.70;;;26.30;58.30;;;;;;5089934;28;20189;-72
2021/07/26 13:12:54;;;;;;;1.90;1.80;;;26.30;58.30;;;;;;5107631;28;20209;-72
2021/07/26 13:15:23;;;;;;;1.73;1.63;;;26.30;58.50;;;;;;5105403;28;20195;-72
2021/07/26 13:17:59;;;;;;;2.13;1.63;;;26.30;58.40;;;;;;5102292;28;20208;-71
2021/07/26 13:20:30;;;;;;;2.10;1.90;;;26.30;58.30;;;;;;5109428;28;20222;-72
2021/07/26 13:23:00;;;;;;;2.10;1.90;;;26.40;58.40;;;;;;5098964;28;20225;-72